sensor_id;sensor_type;location;lat;lon;timestamp;P1;durP1;ratioP1;P2;durP2;ratioP2
64297;SDS011;50639;53.270;7.956;2023-05-17T00:00:49;22.02;;;4.90;;
64297;SDS011;50639;53.270;7.956;2023-05-17T00:03:15;24.05;;;5.05;;
64297;SDS011;50639;53.270;7.956;2023-05-17T00:05:41;20.27;;;4.67;;
64297;SDS011;50639;53.270;7.956;2023-05-17T00:08:07;22.85;;;5.90;;
64297;SDS011;50639;53.270;7.956;2023-05-17T00:10:32;22.55;;;4.88;;
64297;SDS011;50639;53.270;7.956;2023-05-17T00:12:58;20.67;;;5.25;;
64297;SDS011;50639;53.270;7.956;2023-05-17T00:16:22;20.33;;;4.55;;
64297;SDS011;50639;53.270;7.956;2023-05-17T00:19:47;18.58;;;4.63;;
64297;SDS011;50639;53.270;7.956;2023-05-17T00:23:11;23.25;;;5.35;;
64297;SDS011;50639;53.270;7.956;2023-05-17T00:26:35;21.30;;;5.47;;
64297;SDS011;50639;53.270;7.956;2023-05-17T00:29:59;19.38;;;4.72;;
64297;SDS011;50639;53.270;7.956;2023-05-17T00:33:23;21.48;;;4.80;;
64297;SDS011;50639;53.270;7.956;2023-05-17T00:36:48;30.95;;;5.60;;
64297;SDS011;50639;53.270;7.956;2023-05-17T00:40:15;18.60;;;4.70;;
64297;SDS011;50639;53.270;7.956;2023-05-17T00:43:39;17.92;;;4.80;;
64297;SDS011;50639;53.270;7.956;2023-05-17T00:47:03;23.80;;;5.32;;
64297;SDS011;50639;53.270;7.956;2023-05-17T00:50:27;20.42;;;4.88;;
64297;SDS011;50639;53.270;7.956;2023-05-17T00:53:52;37.28;;;5.68;;
64297;SDS011;50639;53.270;7.956;2023-05-17T00:57:17;44.95;;;5.28;;
64297;SDS011;50639;53.270;7.956;2023-05-17T01:00:41;17.40;;;4.32;;
64297;SDS011;50639;53.270;7.956;2023-05-17T01:04:06;25.85;;;5.55;;
64297;SDS011;50639;53.270;7.956;2023-05-17T01:07:30;15.85;;;4.20;;
64297;SDS011;50639;53.270;7.956;2023-05-17T01:11:09;22.00;;;5.40;;
64297;SDS011;50639;53.270;7.956;2023-05-17T01:18:45;20.13;;;4.72;;
64297;SDS011;50639;53.270;7.956;2023-05-17T01:29:41;25.58;;;5.50;;
64297;SDS011;50639;53.270;7.956;2023-05-17T01:33:08;22.50;;;5.13;;
64297;SDS011;50639;53.270;7.956;2023-05-17T01:36:33;18.60;;;4.23;;
64297;SDS011;50639;53.270;7.956;2023-05-17T01:39:57;28.00;;;5.68;;
64297;SDS011;50639;53.270;7.956;2023-05-17T01:50:56;25.55;;;4.32;;
64297;SDS011;50639;53.270;7.956;2023-05-17T01:54:24;23.67;;;5.38;;
64297;SDS011;50639;53.270;7.956;2023-05-17T01:57:51;24.27;;;4.50;;
64297;SDS011;50639;53.270;7.956;2023-05-17T02:01:17;20.23;;;4.20;;
64297;SDS011;50639;53.270;7.956;2023-05-17T02:04:42;21.33;;;4.93;;
64297;SDS011;50639;53.270;7.956;2023-05-17T02:08:06;21.08;;;4.32;;
64297;SDS011;50639;53.270;7.956;2023-05-17T02:11:31;22.02;;;5.18;;
64297;SDS011;50639;53.270;7.956;2023-05-17T02:14:56;18.40;;;4.28;;
64297;SDS011;50639;53.270;7.956;2023-05-17T02:18:24;21.23;;;4.97;;
64297;SDS011;50639;53.270;7.956;2023-05-17T02:21:49;18.63;;;3.88;;
64297;SDS011;50639;53.270;7.956;2023-05-17T02:25:15;20.45;;;4.38;;
64297;SDS011;50639;53.270;7.956;2023-05-17T02:28:39;20.88;;;4.30;;
64297;SDS011;50639;53.270;7.956;2023-05-17T02:32:04;14.30;;;3.42;;
64297;SDS011;50639;53.270;7.956;2023-05-17T02:35:29;19.80;;;4.13;;
64297;SDS011;50639;53.270;7.956;2023-05-17T02:38:54;20.25;;;4.88;;
64297;SDS011;50639;53.270;7.956;2023-05-17T02:42:18;18.30;;;3.78;;
64297;SDS011;50639;53.270;7.956;2023-05-17T02:45:42;18.35;;;4.05;;
64297;SDS011;50639;53.270;7.956;2023-05-17T02:49:06;14.20;;;3.35;;
64297;SDS011;50639;53.270;7.956;2023-05-17T02:52:31;14.00;;;3.13;;
64297;SDS011;50639;53.270;7.956;2023-05-17T02:55:54;22.20;;;3.30;;
64297;SDS011;50639;53.270;7.956;2023-05-17T02:59:19;15.68;;;3.38;;
64297;SDS011;50639;53.270;7.956;2023-05-17T03:02:43;18.30;;;2.80;;
64297;SDS011;50639;53.270;7.956;2023-05-17T03:06:08;14.88;;;3.65;;
64297;SDS011;50639;53.270;7.956;2023-05-17T03:09:34;17.63;;;3.85;;
64297;SDS011;50639;53.270;7.956;2023-05-17T03:12:58;17.45;;;3.38;;
64297;SDS011;50639;53.270;7.956;2023-05-17T03:16:25;13.38;;;2.92;;
64297;SDS011;50639;53.270;7.956;2023-05-17T03:19:48;16.13;;;2.90;;
64297;SDS011;50639;53.270;7.956;2023-05-17T03:23:13;15.10;;;3.17;;
64297;SDS011;50639;53.270;7.956;2023-05-17T03:26:40;12.55;;;3.10;;
64297;SDS011;50639;53.270;7.956;2023-05-17T03:30:01;12.60;;;2.92;;
64297;SDS011;50639;53.270;7.956;2023-05-17T03:33:29;13.02;;;3.20;;
64297;SDS011;50639;53.270;7.956;2023-05-17T03:36:53;14.77;;;3.38;;
64297;SDS011;50639;53.270;7.956;2023-05-17T03:40:17;12.38;;;2.80;;
64297;SDS011;50639;53.270;7.956;2023-05-17T03:43:41;14.30;;;3.13;;
64297;SDS011;50639;53.270;7.956;2023-05-17T03:47:07;14.43;;;3.33;;
64297;SDS011;50639;53.270;7.956;2023-05-17T03:50:35;14.55;;;2.80;;
64297;SDS011;50639;53.270;7.956;2023-05-17T03:54:01;15.98;;;4.00;;
64297;SDS011;50639;53.270;7.956;2023-05-17T03:57:25;11.98;;;3.65;;
64297;SDS011;50639;53.270;7.956;2023-05-17T04:00:49;15.13;;;3.40;;
64297;SDS011;50639;53.270;7.956;2023-05-17T04:04:14;19.73;;;3.70;;
64297;SDS011;50639;53.270;7.956;2023-05-17T04:08:37;15.23;;;3.42;;
64297;SDS011;50639;53.270;7.956;2023-05-17T04:11:02;15.70;;;3.15;;
64297;SDS011;50639;53.270;7.956;2023-05-17T04:13:48;15.30;;;3.40;;
64297;SDS011;50639;53.270;7.956;2023-05-17T04:16:13;12.20;;;3.22;;
64297;SDS011;50639;53.270;7.956;2023-05-17T04:18:40;17.42;;;4.18;;
64297;SDS011;50639;53.270;7.956;2023-05-17T04:21:06;15.85;;;3.90;;
64297;SDS011;50639;53.270;7.956;2023-05-17T04:23:33;10.40;;;3.10;;
64297;SDS011;50639;53.270;7.956;2023-05-17T04:25:59;15.38;;;3.30;;
64297;SDS011;50639;53.270;7.956;2023-05-17T04:28:26;15.93;;;3.60;;
64297;SDS011;50639;53.270;7.956;2023-05-17T04:30:51;17.30;;;2.95;;
64297;SDS011;50639;53.270;7.956;2023-05-17T04:33:18;16.40;;;3.53;;
64297;SDS011;50639;53.270;7.956;2023-05-17T04:35:44;25.00;;;4.32;;
64297;SDS011;50639;53.270;7.956;2023-05-17T04:40:37;13.52;;;3.33;;
64297;SDS011;50639;53.270;7.956;2023-05-17T04:43:03;14.18;;;3.55;;
64297;SDS011;50639;53.270;7.956;2023-05-17T04:45:28;15.07;;;3.60;;
64297;SDS011;50639;53.270;7.956;2023-05-17T04:47:54;13.23;;;3.40;;
64297;SDS011;50639;53.270;7.956;2023-05-17T04:50:20;18.42;;;3.92;;
64297;SDS011;50639;53.270;7.956;2023-05-17T04:52:46;15.57;;;3.65;;
64297;SDS011;50639;53.270;7.956;2023-05-17T04:55:11;13.23;;;3.45;;
64297;SDS011;50639;53.270;7.956;2023-05-17T04:57:38;17.05;;;3.30;;
64297;SDS011;50639;53.270;7.956;2023-05-17T05:00:04;22.88;;;4.35;;
64297;SDS011;50639;53.270;7.956;2023-05-17T05:02:31;31.60;;;13.03;;
64297;SDS011;50639;53.270;7.956;2023-05-17T05:04:57;15.00;;;3.72;;
64297;SDS011;50639;53.270;7.956;2023-05-17T05:07:23;14.98;;;3.95;;
64297;SDS011;50639;53.270;7.956;2023-05-17T05:09:49;12.25;;;3.22;;
64297;SDS011;50639;53.270;7.956;2023-05-17T05:12:17;14.05;;;3.10;;
64297;SDS011;50639;53.270;7.956;2023-05-17T05:14:43;22.48;;;4.25;;
64297;SDS011;50639;53.270;7.956;2023-05-17T05:17:08;13.35;;;3.65;;
64297;SDS011;50639;53.270;7.956;2023-05-17T05:19:34;18.17;;;3.17;;
64297;SDS011;50639;53.270;7.956;2023-05-17T05:22:00;18.05;;;3.58;;
64297;SDS011;50639;53.270;7.956;2023-05-17T05:24:25;14.23;;;3.33;;
64297;SDS011;50639;53.270;7.956;2023-05-17T05:26:51;20.98;;;3.75;;
64297;SDS011;50639;53.270;7.956;2023-05-17T05:29:18;16.75;;;3.50;;
64297;SDS011;50639;53.270;7.956;2023-05-17T05:31:43;12.18;;;3.30;;
64297;SDS011;50639;53.270;7.956;2023-05-17T05:34:10;17.00;;;3.97;;
64297;SDS011;50639;53.270;7.956;2023-05-17T05:36:35;15.32;;;3.70;;
64297;SDS011;50639;53.270;7.956;2023-05-17T05:39:00;16.40;;;4.38;;
64297;SDS011;50639;53.270;7.956;2023-05-17T05:41:30;18.27;;;3.97;;
64297;SDS011;50639;53.270;7.956;2023-05-17T05:43:55;23.63;;;4.13;;
64297;SDS011;50639;53.270;7.956;2023-05-17T05:46:21;23.33;;;4.75;;
64297;SDS011;50639;53.270;7.956;2023-05-17T05:48:47;17.75;;;4.30;;
64297;SDS011;50639;53.270;7.956;2023-05-17T05:51:13;19.60;;;4.32;;
64297;SDS011;50639;53.270;7.956;2023-05-17T05:53:41;22.30;;;4.78;;
64297;SDS011;50639;53.270;7.956;2023-05-17T05:56:07;21.77;;;3.90;;
64297;SDS011;50639;53.270;7.956;2023-05-17T05:58:33;17.73;;;4.30;;
64297;SDS011;50639;53.270;7.956;2023-05-17T06:01:01;13.95;;;3.80;;
64297;SDS011;50639;53.270;7.956;2023-05-17T06:03:26;17.35;;;4.13;;
64297;SDS011;50639;53.270;7.956;2023-05-17T06:05:53;17.07;;;4.17;;
64297;SDS011;50639;53.270;7.956;2023-05-17T06:08:19;19.35;;;3.95;;
64297;SDS011;50639;53.270;7.956;2023-05-17T06:10:44;16.67;;;4.05;;
64297;SDS011;50639;53.270;7.956;2023-05-17T06:13:09;18.08;;;3.75;;
64297;SDS011;50639;53.270;7.956;2023-05-17T06:15:35;22.33;;;4.05;;
64297;SDS011;50639;53.270;7.956;2023-05-17T06:18:00;14.00;;;4.30;;
64297;SDS011;50639;53.270;7.956;2023-05-17T06:20:27;16.33;;;3.88;;
64297;SDS011;50639;53.270;7.956;2023-05-17T06:22:53;20.35;;;4.80;;
64297;SDS011;50639;53.270;7.956;2023-05-17T06:25:18;18.48;;;4.07;;
64297;SDS011;50639;53.270;7.956;2023-05-17T06:27:43;19.83;;;4.35;;
64297;SDS011;50639;53.270;7.956;2023-05-17T06:30:09;19.73;;;4.47;;
64297;SDS011;50639;53.270;7.956;2023-05-17T06:32:34;18.58;;;3.97;;
64297;SDS011;50639;53.270;7.956;2023-05-17T06:35:00;11.93;;;3.50;;
64297;SDS011;50639;53.270;7.956;2023-05-17T06:37:25;17.85;;;4.50;;
64297;SDS011;50639;53.270;7.956;2023-05-17T06:39:51;15.10;;;3.67;;
64297;SDS011;50639;53.270;7.956;2023-05-17T06:42:16;20.77;;;4.30;;
64297;SDS011;50639;53.270;7.956;2023-05-17T06:44:42;19.38;;;4.43;;
64297;SDS011;50639;53.270;7.956;2023-05-17T06:47:08;17.58;;;3.85;;
64297;SDS011;50639;53.270;7.956;2023-05-17T06:49:35;19.15;;;4.07;;
64297;SDS011;50639;53.270;7.956;2023-05-17T06:52:01;19.87;;;4.10;;
64297;SDS011;50639;53.270;7.956;2023-05-17T06:54:28;16.75;;;3.80;;
64297;SDS011;50639;53.270;7.956;2023-05-17T06:56:53;18.73;;;3.90;;
64297;SDS011;50639;53.270;7.956;2023-05-17T06:59:20;23.35;;;4.68;;
64297;SDS011;50639;53.270;7.956;2023-05-17T07:01:45;17.05;;;4.45;;
64297;SDS011;50639;53.270;7.956;2023-05-17T07:04:11;14.98;;;3.60;;
64297;SDS011;50639;53.270;7.956;2023-05-17T07:06:36;18.73;;;4.13;;
64297;SDS011;50639;53.270;7.956;2023-05-17T07:09:01;15.77;;;4.65;;
64297;SDS011;50639;53.270;7.956;2023-05-17T07:11:27;10.70;;;3.05;;
64297;SDS011;50639;53.270;7.956;2023-05-17T07:13:52;17.92;;;3.80;;
64297;SDS011;50639;53.270;7.956;2023-05-17T07:16:17;16.13;;;4.57;;
64297;SDS011;50639;53.270;7.956;2023-05-17T07:18:45;18.48;;;4.30;;
64297;SDS011;50639;53.270;7.956;2023-05-17T07:21:20;16.55;;;3.92;;
64297;SDS011;50639;53.270;7.956;2023-05-17T07:23:48;16.05;;;4.30;;
64297;SDS011;50639;53.270;7.956;2023-05-17T07:26:14;19.02;;;4.22;;
64297;SDS011;50639;53.270;7.956;2023-05-17T07:28:44;14.77;;;3.55;;
64297;SDS011;50639;53.270;7.956;2023-05-17T07:31:11;13.68;;;3.30;;
64297;SDS011;50639;53.270;7.956;2023-05-17T07:33:38;16.42;;;3.72;;
64297;SDS011;50639;53.270;7.956;2023-05-17T07:36:03;19.08;;;3.75;;
64297;SDS011;50639;53.270;7.956;2023-05-17T07:38:30;18.90;;;4.47;;
64297;SDS011;50639;53.270;7.956;2023-05-17T07:40:57;17.98;;;3.85;;
64297;SDS011;50639;53.270;7.956;2023-05-17T07:43:23;18.60;;;3.53;;
64297;SDS011;50639;53.270;7.956;2023-05-17T07:45:49;16.05;;;3.30;;
64297;SDS011;50639;53.270;7.956;2023-05-17T07:48:15;9.73;;;2.88;;
64297;SDS011;50639;53.270;7.956;2023-05-17T07:50:40;13.68;;;3.08;;
64297;SDS011;50639;53.270;7.956;2023-05-17T07:53:08;9.88;;;2.83;;
64297;SDS011;50639;53.270;7.956;2023-05-17T07:55:34;8.77;;;2.80;;
64297;SDS011;50639;53.270;7.956;2023-05-17T07:58:00;13.90;;;2.97;;
64297;SDS011;50639;53.270;7.956;2023-05-17T08:00:25;11.02;;;2.58;;
64297;SDS011;50639;53.270;7.956;2023-05-17T08:02:50;10.13;;;3.00;;
64297;SDS011;50639;53.270;7.956;2023-05-17T08:05:16;9.43;;;2.70;;
64297;SDS011;50639;53.270;7.956;2023-05-17T08:07:41;11.88;;;2.80;;
64297;SDS011;50639;53.270;7.956;2023-05-17T08:10:07;9.25;;;2.80;;
64297;SDS011;50639;53.270;7.956;2023-05-17T08:12:32;9.40;;;2.90;;
64297;SDS011;50639;53.270;7.956;2023-05-17T08:14:59;14.00;;;2.80;;
64297;SDS011;50639;53.270;7.956;2023-05-17T08:17:24;10.27;;;2.80;;
64297;SDS011;50639;53.270;7.956;2023-05-17T08:19:51;12.23;;;3.05;;
64297;SDS011;50639;53.270;7.956;2023-05-17T08:22:16;9.57;;;2.67;;
64297;SDS011;50639;53.270;7.956;2023-05-17T08:24:43;9.37;;;2.70;;
64297;SDS011;50639;53.270;7.956;2023-05-17T08:27:11;13.32;;;3.33;;
64297;SDS011;50639;53.270;7.956;2023-05-17T08:29:38;7.30;;;2.75;;
64297;SDS011;50639;53.270;7.956;2023-05-17T08:32:03;12.95;;;3.08;;
64297;SDS011;50639;53.270;7.956;2023-05-17T08:34:29;8.05;;;2.67;;
64297;SDS011;50639;53.270;7.956;2023-05-17T08:36:55;9.80;;;2.70;;
64297;SDS011;50639;53.270;7.956;2023-05-17T08:39:20;11.73;;;3.20;;
64297;SDS011;50639;53.270;7.956;2023-05-17T08:41:46;10.63;;;3.15;;
64297;SDS011;50639;53.270;7.956;2023-05-17T08:44:12;12.13;;;3.20;;
64297;SDS011;50639;53.270;7.956;2023-05-17T08:46:38;11.65;;;3.15;;
64297;SDS011;50639;53.270;7.956;2023-05-17T08:49:04;13.88;;;3.13;;
64297;SDS011;50639;53.270;7.956;2023-05-17T08:51:30;14.52;;;3.58;;
64297;SDS011;50639;53.270;7.956;2023-05-17T08:53:57;16.15;;;3.28;;
64297;SDS011;50639;53.270;7.956;2023-05-17T08:56:22;16.73;;;3.63;;
64297;SDS011;50639;53.270;7.956;2023-05-17T08:58:48;8.85;;;2.88;;
64297;SDS011;50639;53.270;7.956;2023-05-17T09:01:15;10.27;;;2.63;;
64297;SDS011;50639;53.270;7.956;2023-05-17T09:03:43;10.27;;;2.95;;
64297;SDS011;50639;53.270;7.956;2023-05-17T09:06:12;11.98;;;2.92;;
64297;SDS011;50639;53.270;7.956;2023-05-17T09:08:38;14.52;;;2.95;;
64297;SDS011;50639;53.270;7.956;2023-05-17T09:11:04;14.57;;;3.15;;
64297;SDS011;50639;53.270;7.956;2023-05-17T09:13:29;14.55;;;2.92;;
64297;SDS011;50639;53.270;7.956;2023-05-17T09:15:55;9.70;;;2.88;;
64297;SDS011;50639;53.270;7.956;2023-05-17T09:18:29;11.15;;;2.55;;
64297;SDS011;50639;53.270;7.956;2023-05-17T09:21:02;14.20;;;3.20;;
64297;SDS011;50639;53.270;7.956;2023-05-17T09:23:30;8.90;;;2.63;;
64297;SDS011;50639;53.270;7.956;2023-05-17T09:26:02;10.00;;;2.90;;
64297;SDS011;50639;53.270;7.956;2023-05-17T09:28:27;10.77;;;2.92;;
64297;SDS011;50639;53.270;7.956;2023-05-17T09:31:04;12.10;;;3.33;;
64297;SDS011;50639;53.270;7.956;2023-05-17T09:33:29;10.60;;;2.85;;
64297;SDS011;50639;53.270;7.956;2023-05-17T09:35:55;10.45;;;2.92;;
64297;SDS011;50639;53.270;7.956;2023-05-17T09:38:24;11.55;;;2.83;;
64297;SDS011;50639;53.270;7.956;2023-05-17T09:40:49;9.23;;;2.67;;
64297;SDS011;50639;53.270;7.956;2023-05-17T09:43:15;10.23;;;3.55;;
64297;SDS011;50639;53.270;7.956;2023-05-17T09:45:42;18.10;;;4.47;;
64297;SDS011;50639;53.270;7.956;2023-05-17T09:50:36;10.27;;;3.00;;
64297;SDS011;50639;53.270;7.956;2023-05-17T09:55:50;8.23;;;2.50;;
64297;SDS011;50639;53.270;7.956;2023-05-17T09:58:16;10.70;;;2.90;;
64297;SDS011;50639;53.270;7.956;2023-05-17T10:00:43;8.05;;;2.40;;
64297;SDS011;50639;53.270;7.956;2023-05-17T10:03:10;7.63;;;2.63;;
64297;SDS011;50639;53.270;7.956;2023-05-17T10:05:38;9.60;;;2.78;;
64297;SDS011;50639;53.270;7.956;2023-05-17T10:08:06;10.98;;;3.03;;
64297;SDS011;50639;53.270;7.956;2023-05-17T10:10:31;13.18;;;3.40;;
64297;SDS011;50639;53.270;7.956;2023-05-17T10:12:58;13.52;;;3.28;;
64297;SDS011;50639;53.270;7.956;2023-05-17T10:17:50;12.37;;;3.50;;
64297;SDS011;50639;53.270;7.956;2023-05-17T10:20:16;16.90;;;3.70;;
64297;SDS011;50639;53.270;7.956;2023-05-17T10:22:42;12.10;;;3.40;;
64297;SDS011;50639;53.270;7.956;2023-05-17T10:25:08;17.60;;;4.85;;
64297;SDS011;50639;53.270;7.956;2023-05-17T10:27:34;13.32;;;3.25;;
64297;SDS011;50639;53.270;7.956;2023-05-17T10:30:01;15.38;;;3.20;;
64297;SDS011;50639;53.270;7.956;2023-05-17T10:32:27;11.27;;;2.90;;
64297;SDS011;50639;53.270;7.956;2023-05-17T10:34:54;16.77;;;3.35;;
64297;SDS011;50639;53.270;7.956;2023-05-17T10:37:20;11.57;;;3.45;;
64297;SDS011;50639;53.270;7.956;2023-05-17T10:39:47;13.75;;;3.75;;
64297;SDS011;50639;53.270;7.956;2023-05-17T10:42:13;13.75;;;3.42;;
64297;SDS011;50639;53.270;7.956;2023-05-17T10:44:41;10.10;;;3.38;;
64297;SDS011;50639;53.270;7.956;2023-05-17T10:47:07;13.85;;;3.08;;
64297;SDS011;50639;53.270;7.956;2023-05-17T10:49:35;13.48;;;3.25;;
64297;SDS011;50639;53.270;7.956;2023-05-17T10:54:33;13.47;;;3.10;;
64297;SDS011;50639;53.270;7.956;2023-05-17T10:57:01;12.15;;;3.25;;
64297;SDS011;50639;53.270;7.956;2023-05-17T10:59:28;10.02;;;3.40;;
64297;SDS011;50639;53.270;7.956;2023-05-17T11:02:05;15.70;;;3.85;;
64297;SDS011;50639;53.270;7.956;2023-05-17T11:12:30;8.50;;;2.55;;
64297;SDS011;50639;53.270;7.956;2023-05-17T11:14:56;13.30;;;3.20;;
64297;SDS011;50639;53.270;7.956;2023-05-17T11:17:26;15.05;;;3.42;;
64297;SDS011;50639;53.270;7.956;2023-05-17T11:20:02;11.65;;;2.75;;
64297;SDS011;50639;53.270;7.956;2023-05-17T11:22:37;12.60;;;3.30;;
64297;SDS011;50639;53.270;7.956;2023-05-17T11:25:05;12.95;;;3.58;;
64297;SDS011;50639;53.270;7.956;2023-05-17T11:29:56;15.33;;;3.90;;
64297;SDS011;50639;53.270;7.956;2023-05-17T11:32:30;12.07;;;4.03;;
64297;SDS011;50639;53.270;7.956;2023-05-17T11:34:59;11.88;;;3.00;;
64297;SDS011;50639;53.270;7.956;2023-05-17T11:37:25;11.77;;;3.47;;
64297;SDS011;50639;53.270;7.956;2023-05-17T11:40:03;15.43;;;3.47;;
64297;SDS011;50639;53.270;7.956;2023-05-17T11:42:30;11.10;;;3.35;;
64297;SDS011;50639;53.270;7.956;2023-05-17T11:44:56;9.02;;;3.15;;
64297;SDS011;50639;53.270;7.956;2023-05-17T11:47:22;10.52;;;3.53;;
64297;SDS011;50639;53.270;7.956;2023-05-17T11:49:47;13.85;;;3.95;;
64297;SDS011;50639;53.270;7.956;2023-05-17T11:52:15;11.13;;;2.97;;
64297;SDS011;50639;53.270;7.956;2023-05-17T11:54:41;18.20;;;3.78;;
64297;SDS011;50639;53.270;7.956;2023-05-17T11:57:07;13.93;;;3.50;;
64297;SDS011;50639;53.270;7.956;2023-05-17T11:59:36;10.85;;;3.55;;
64297;SDS011;50639;53.270;7.956;2023-05-17T12:02:02;12.50;;;3.20;;
64297;SDS011;50639;53.270;7.956;2023-05-17T12:04:28;14.35;;;3.70;;
64297;SDS011;50639;53.270;7.956;2023-05-17T12:06:54;16.08;;;3.83;;
64297;SDS011;50639;53.270;7.956;2023-05-17T12:09:20;15.20;;;4.18;;
64297;SDS011;50639;53.270;7.956;2023-05-17T12:11:47;18.13;;;3.40;;
64297;SDS011;50639;53.270;7.956;2023-05-17T12:14:16;15.65;;;3.53;;
64297;SDS011;50639;53.270;7.956;2023-05-17T12:16:50;15.43;;;3.75;;
64297;SDS011;50639;53.270;7.956;2023-05-17T12:19:18;14.68;;;3.67;;
64297;SDS011;50639;53.270;7.956;2023-05-17T12:21:46;20.58;;;3.70;;
64297;SDS011;50639;53.270;7.956;2023-05-17T12:24:13;17.13;;;3.78;;
64297;SDS011;50639;53.270;7.956;2023-05-17T12:26:45;15.40;;;3.55;;
64297;SDS011;50639;53.270;7.956;2023-05-17T12:29:12;10.68;;;3.70;;
64297;SDS011;50639;53.270;7.956;2023-05-17T12:31:49;16.33;;;3.67;;
64297;SDS011;50639;53.270;7.956;2023-05-17T12:36:41;18.50;;;3.67;;
64297;SDS011;50639;53.270;7.956;2023-05-17T12:39:08;13.27;;;3.58;;
64297;SDS011;50639;53.270;7.956;2023-05-17T12:41:34;10.43;;;3.20;;
64297;SDS011;50639;53.270;7.956;2023-05-17T12:44:01;17.00;;;3.63;;
64297;SDS011;50639;53.270;7.956;2023-05-17T12:46:27;12.73;;;3.45;;
64297;SDS011;50639;53.270;7.956;2023-05-17T12:48:54;16.85;;;3.40;;
64297;SDS011;50639;53.270;7.956;2023-05-17T12:51:21;9.75;;;3.20;;
64297;SDS011;50639;53.270;7.956;2023-05-17T12:53:50;17.30;;;4.03;;
64297;SDS011;50639;53.270;7.956;2023-05-17T12:56:18;16.42;;;3.88;;
64297;SDS011;50639;53.270;7.956;2023-05-17T12:59:02;13.43;;;2.85;;
64297;SDS011;50639;53.270;7.956;2023-05-17T13:02:01;10.73;;;3.10;;
64297;SDS011;50639;53.270;7.956;2023-05-17T13:04:20;12.82;;;3.67;;
64297;SDS011;50639;53.270;7.956;2023-05-17T13:06:56;11.52;;;3.20;;
64297;SDS011;50639;53.270;7.956;2023-05-17T13:09:22;10.02;;;3.10;;
64297;SDS011;50639;53.270;7.956;2023-05-17T13:11:51;16.45;;;3.30;;
64297;SDS011;50639;53.270;7.956;2023-05-17T13:17:02;16.45;;;3.13;;
64297;SDS011;50639;53.270;7.956;2023-05-17T13:19:28;10.27;;;3.08;;
64297;SDS011;50639;53.270;7.956;2023-05-17T13:21:53;14.38;;;3.60;;
64297;SDS011;50639;53.270;7.956;2023-05-17T13:24:19;12.77;;;4.23;;
64297;SDS011;50639;53.270;7.956;2023-05-17T13:26:44;10.98;;;3.00;;
64297;SDS011;50639;53.270;7.956;2023-05-17T13:29:10;12.68;;;3.05;;
64297;SDS011;50639;53.270;7.956;2023-05-17T13:31:35;11.10;;;3.45;;
64297;SDS011;50639;53.270;7.956;2023-05-17T13:34:01;11.23;;;3.58;;
64297;SDS011;50639;53.270;7.956;2023-05-17T13:36:27;12.77;;;3.40;;
64297;SDS011;50639;53.270;7.956;2023-05-17T13:38:53;14.73;;;5.22;;
64297;SDS011;50639;53.270;7.956;2023-05-17T13:41:18;13.07;;;3.10;;
64297;SDS011;50639;53.270;7.956;2023-05-17T13:43:43;11.00;;;3.15;;
64297;SDS011;50639;53.270;7.956;2023-05-17T13:46:09;16.75;;;3.60;;
64297;SDS011;50639;53.270;7.956;2023-05-17T13:48:34;14.27;;;2.97;;
64297;SDS011;50639;53.270;7.956;2023-05-17T13:51:00;13.35;;;3.22;;
64297;SDS011;50639;53.270;7.956;2023-05-17T13:53:26;15.82;;;3.78;;
64297;SDS011;50639;53.270;7.956;2023-05-17T13:55:52;15.80;;;3.55;;
64297;SDS011;50639;53.270;7.956;2023-05-17T13:58:17;14.68;;;3.67;;
64297;SDS011;50639;53.270;7.956;2023-05-17T14:00:43;12.75;;;3.75;;
64297;SDS011;50639;53.270;7.956;2023-05-17T14:03:11;15.73;;;3.65;;
64297;SDS011;50639;53.270;7.956;2023-05-17T14:05:37;15.30;;;3.40;;
64297;SDS011;50639;53.270;7.956;2023-05-17T14:08:03;16.80;;;3.45;;
64297;SDS011;50639;53.270;7.956;2023-05-17T14:10:28;11.05;;;3.13;;
64297;SDS011;50639;53.270;7.956;2023-05-17T14:12:54;17.08;;;3.20;;
64297;SDS011;50639;53.270;7.956;2023-05-17T14:15:19;13.80;;;3.60;;
64297;SDS011;50639;53.270;7.956;2023-05-17T14:17:46;10.35;;;2.80;;
64297;SDS011;50639;53.270;7.956;2023-05-17T14:20:11;12.88;;;3.00;;
64297;SDS011;50639;53.270;7.956;2023-05-17T14:22:38;16.35;;;3.35;;
64297;SDS011;50639;53.270;7.956;2023-05-17T14:25:04;10.45;;;3.00;;
64297;SDS011;50639;53.270;7.956;2023-05-17T14:27:30;10.60;;;2.90;;
64297;SDS011;50639;53.270;7.956;2023-05-17T14:29:56;12.43;;;3.45;;
64297;SDS011;50639;53.270;7.956;2023-05-17T14:32:21;11.33;;;3.10;;
64297;SDS011;50639;53.270;7.956;2023-05-17T14:34:46;8.63;;;2.70;;
64297;SDS011;50639;53.270;7.956;2023-05-17T14:37:11;11.90;;;2.78;;
64297;SDS011;50639;53.270;7.956;2023-05-17T14:39:38;12.88;;;3.30;;
64297;SDS011;50639;53.270;7.956;2023-05-17T14:42:04;15.98;;;3.28;;
64297;SDS011;50639;53.270;7.956;2023-05-17T14:44:30;12.43;;;2.97;;
64297;SDS011;50639;53.270;7.956;2023-05-17T14:46:56;12.13;;;2.78;;
64297;SDS011;50639;53.270;7.956;2023-05-17T14:49:21;13.38;;;3.13;;
64297;SDS011;50639;53.270;7.956;2023-05-17T14:51:46;11.55;;;3.22;;
64297;SDS011;50639;53.270;7.956;2023-05-17T14:54:13;10.57;;;3.67;;
64297;SDS011;50639;53.270;7.956;2023-05-17T14:56:39;17.85;;;3.10;;
64297;SDS011;50639;53.270;7.956;2023-05-17T14:59:05;9.63;;;2.90;;
64297;SDS011;50639;53.270;7.956;2023-05-17T15:01:31;12.10;;;3.03;;
64297;SDS011;50639;53.270;7.956;2023-05-17T15:03:56;9.80;;;3.17;;
64297;SDS011;50639;53.270;7.956;2023-05-17T15:06:22;11.68;;;3.08;;
64297;SDS011;50639;53.270;7.956;2023-05-17T15:08:49;13.63;;;3.17;;
64297;SDS011;50639;53.270;7.956;2023-05-17T15:11:15;13.93;;;3.58;;
64297;SDS011;50639;53.270;7.956;2023-05-17T15:13:40;18.27;;;3.13;;
64297;SDS011;50639;53.270;7.956;2023-05-17T15:16:06;11.93;;;3.00;;
64297;SDS011;50639;53.270;7.956;2023-05-17T15:18:31;10.95;;;3.00;;
64297;SDS011;50639;53.270;7.956;2023-05-17T15:20:57;12.48;;;3.40;;
64297;SDS011;50639;53.270;7.956;2023-05-17T15:23:22;9.93;;;2.95;;
64297;SDS011;50639;53.270;7.956;2023-05-17T15:25:47;10.60;;;3.10;;
64297;SDS011;50639;53.270;7.956;2023-05-17T15:28:13;11.93;;;3.08;;
64297;SDS011;50639;53.270;7.956;2023-05-17T15:30:38;9.48;;;2.85;;
64297;SDS011;50639;53.270;7.956;2023-05-17T15:33:06;10.50;;;2.75;;
64297;SDS011;50639;53.270;7.956;2023-05-17T15:35:32;8.70;;;3.20;;
64297;SDS011;50639;53.270;7.956;2023-05-17T15:38:02;11.18;;;2.60;;
64297;SDS011;50639;53.270;7.956;2023-05-17T15:40:29;8.57;;;2.65;;
64297;SDS011;50639;53.270;7.956;2023-05-17T15:42:55;13.30;;;3.10;;
64297;SDS011;50639;53.270;7.956;2023-05-17T15:45:20;14.55;;;2.88;;
64297;SDS011;50639;53.270;7.956;2023-05-17T15:47:46;8.93;;;3.05;;
64297;SDS011;50639;53.270;7.956;2023-05-17T15:50:12;10.10;;;2.75;;
64297;SDS011;50639;53.270;7.956;2023-05-17T15:52:38;9.27;;;3.13;;
64297;SDS011;50639;53.270;7.956;2023-05-17T15:55:04;9.52;;;3.05;;
64297;SDS011;50639;53.270;7.956;2023-05-17T15:57:29;13.02;;;3.20;;
64297;SDS011;50639;53.270;7.956;2023-05-17T15:59:55;13.70;;;2.75;;
64297;SDS011;50639;53.270;7.956;2023-05-17T16:02:20;12.27;;;3.22;;
64297;SDS011;50639;53.270;7.956;2023-05-17T16:04:46;13.70;;;3.88;;
64297;SDS011;50639;53.270;7.956;2023-05-17T16:07:11;12.10;;;3.13;;
64297;SDS011;50639;53.270;7.956;2023-05-17T16:09:37;10.35;;;2.92;;
64297;SDS011;50639;53.270;7.956;2023-05-17T16:12:02;10.98;;;2.90;;
64297;SDS011;50639;53.270;7.956;2023-05-17T16:14:27;13.48;;;3.30;;
64297;SDS011;50639;53.270;7.956;2023-05-17T16:16:53;13.07;;;3.10;;
64297;SDS011;50639;53.270;7.956;2023-05-17T16:19:19;10.13;;;2.90;;
64297;SDS011;50639;53.270;7.956;2023-05-17T16:21:44;7.72;;;2.67;;